sensor_id;sensor_type;location;lat;lon;timestamp;temperature;humidity
76120;DHT22;64852;48.092;-1.640;2023-07-28T16:18:52;30.80;54.50
76120;DHT22;64852;48.092;-1.640;2023-07-28T16:21:18;31.20;58.00
76120;DHT22;64852;48.092;-1.640;2023-07-28T16:23:44;31.90;55.20
76120;DHT22;64852;48.092;-1.640;2023-07-28T16:26:11;32.10;51.30
76120;DHT22;64852;48.092;-1.640;2023-07-28T16:28:37;31.90;51.30
76120;DHT22;64852;48.092;-1.640;2023-07-28T16:31:05;31.40;51.50
76120;DHT22;64852;48.092;-1.640;2023-07-28T16:33:33;30.90;51.70
76120;DHT22;64852;48.092;-1.640;2023-07-28T16:36:02;30.70;53.60
76120;DHT22;64852;48.092;-1.640;2023-07-28T16:38:28;30.60;53.60
76120;DHT22;64852;48.092;-1.640;2023-07-28T16:40:54;30.20;53.80
76120;DHT22;64852;48.092;-1.640;2023-07-28T16:43:20;30.90;54.10
76120;DHT22;64852;48.092;-1.640;2023-07-28T16:45:46;30.80;53.10
76120;DHT22;64852;48.092;-1.640;2023-07-28T16:48:11;30.60;52.30
76120;DHT22;64852;48.092;-1.640;2023-07-28T16:50:37;30.00;52.50
76120;DHT22;64852;48.092;-1.640;2023-07-28T16:53:02;29.60;53.20
76120;DHT22;64852;48.092;-1.640;2023-07-28T16:55:28;29.30;53.80
76120;DHT22;64852;48.092;-1.640;2023-07-28T16:57:54;29.00;54.40
76120;DHT22;64852;48.092;-1.640;2023-07-28T17:00:19;28.60;55.40
76120;DHT22;64852;48.092;-1.640;2023-07-28T17:02:45;28.20;56.30
76120;DHT22;64852;48.092;-1.640;2023-07-28T17:05:11;27.60;57.60
76120;DHT22;64852;48.092;-1.640;2023-07-28T17:07:37;27.40;59.20
76120;DHT22;64852;48.092;-1.640;2023-07-28T17:10:02;27.50;60.10
76120;DHT22;64852;48.092;-1.640;2023-07-28T17:12:28;27.30;61.50
76120;DHT22;64852;48.092;-1.640;2023-07-28T17:14:54;27.20;61.70
76120;DHT22;64852;48.092;-1.640;2023-07-28T17:17:19;27.30;61.80
76120;DHT22;64852;48.092;-1.640;2023-07-28T17:19:45;27.30;63.80
76120;DHT22;64852;48.092;-1.640;2023-07-28T17:22:10;26.90;63.80
76120;DHT22;64852;48.092;-1.640;2023-07-28T17:24:36;26.60;64.10
76120;DHT22;64852;48.092;-1.640;2023-07-28T17:27:01;26.40;64.80
76120;DHT22;64852;48.092;-1.640;2023-07-28T17:29:27;26.20;65.00
76120;DHT22;64852;48.092;-1.640;2023-07-28T17:31:52;26.00;69.40
76120;DHT22;64852;48.092;-1.640;2023-07-28T17:34:18;25.90;71.10
76120;DHT22;64852;48.092;-1.640;2023-07-28T17:36:43;25.70;74.80
76120;DHT22;64852;48.092;-1.640;2023-07-28T17:39:09;25.60;75.00
76120;DHT22;64852;48.092;-1.640;2023-07-28T17:41:35;25.50;73.40
76120;DHT22;64852;48.092;-1.640;2023-07-28T17:44:00;25.50;80.40
76120;DHT22;64852;48.092;-1.640;2023-07-28T17:46:26;25.30;84.40
76120;DHT22;64852;48.092;-1.640;2023-07-28T17:48:51;25.10;89.60
76120;DHT22;64852;48.092;-1.640;2023-07-28T17:51:17;24.80;90.20
76120;DHT22;64852;48.092;-1.640;2023-07-28T17:53:42;24.70;92.80
76120;DHT22;64852;48.092;-1.640;2023-07-28T17:56:08;24.50;93.10
76120;DHT22;64852;48.092;-1.640;2023-07-28T17:58:33;24.30;93.50
76120;DHT22;64852;48.092;-1.640;2023-07-28T18:00:59;24.30;96.20
76120;DHT22;64852;48.092;-1.640;2023-07-28T18:03:25;24.20;98.90
76120;DHT22;64852;48.092;-1.640;2023-07-28T18:05:51;24.20;98.50
76120;DHT22;64852;48.092;-1.640;2023-07-28T18:08:16;24.20;97.30
76120;DHT22;64852;48.092;-1.640;2023-07-28T18:10:42;24.10;99.90
76120;DHT22;64852;48.092;-1.640;2023-07-28T18:13:07;24.20;98.60
76120;DHT22;64852;48.092;-1.640;2023-07-28T18:15:33;24.10;99.10
76120;DHT22;64852;48.092;-1.640;2023-07-28T18:17:59;24.10;99.90
76120;DHT22;64852;48.092;-1.640;2023-07-28T18:20:26;23.90;99.90
76120;DHT22;64852;48.092;-1.640;2023-07-28T18:22:52;23.90;99.90
76120;DHT22;64852;48.092;-1.640;2023-07-28T18:25:18;24.00;99.90
76120;DHT22;64852;48.092;-1.640;2023-07-28T18:27:44;23.90;99.90
76120;DHT22;64852;48.092;-1.640;2023-07-28T18:30:10;23.90;99.90
76120;DHT22;64852;48.092;-1.640;2023-07-28T18:32:37;23.90;99.90
76120;DHT22;64852;48.092;-1.640;2023-07-28T18:35:02;23.90;99.90
76120;DHT22;64852;48.092;-1.640;2023-07-28T18:37:28;24.00;99.90
76120;DHT22;64852;48.092;-1.640;2023-07-28T18:39:53;23.80;99.90
76120;DHT22;64852;48.092;-1.640;2023-07-28T18:42:21;23.80;99.90
76120;DHT22;64852;48.092;-1.640;2023-07-28T18:44:46;23.60;99.90
76120;DHT22;64852;48.092;-1.640;2023-07-28T18:47:12;23.50;99.90
76120;DHT22;64852;48.092;-1.640;2023-07-28T18:49:37;23.40;99.90
76120;DHT22;64852;48.092;-1.640;2023-07-28T18:52:03;23.40;99.90
76120;DHT22;64852;48.092;-1.640;2023-07-28T18:54:28;23.30;99.90
76120;DHT22;64852;48.092;-1.640;2023-07-28T18:56:54;23.20;99.90
76120;DHT22;64852;48.092;-1.640;2023-07-28T18:59:19;23.10;99.90
76120;DHT22;64852;48.092;-1.640;2023-07-28T19:01:45;23.10;99.90
76120;DHT22;64852;48.092;-1.640;2023-07-28T19:04:11;23.00;99.90
76120;DHT22;64852;48.092;-1.640;2023-07-28T19:06:36;22.90;99.90
76120;DHT22;64852;48.092;-1.640;2023-07-28T19:09:02;22.90;99.90
76120;DHT22;64852;48.092;-1.640;2023-07-28T19:11:28;22.90;99.90
76120;DHT22;64852;48.092;-1.640;2023-07-28T19:13:53;22.80;99.90
76120;DHT22;64852;48.092;-1.640;2023-07-28T19:16:19;22.90;99.90
76120;DHT22;64852;48.092;-1.640;2023-07-28T19:18:44;22.90;99.90
76120;DHT22;64852;48.092;-1.640;2023-07-28T19:21:10;22.90;99.90
76120;DHT22;64852;48.092;-1.640;2023-07-28T19:23:35;22.90;99.90
76120;DHT22;64852;48.092;-1.640;2023-07-28T19:26:01;22.80;99.90
76120;DHT22;64852;48.092;-1.640;2023-07-28T19:28:26;22.80;99.90
76120;DHT22;64852;48.092;-1.640;2023-07-28T19:30:52;22.80;99.90
76120;DHT22;64852;48.092;-1.640;2023-07-28T19:33:18;22.80;99.90
76120;DHT22;64852;48.092;-1.640;2023-07-28T19:35:43;22.70;99.90
76120;DHT22;64852;48.092;-1.640;2023-07-28T19:38:11;22.70;99.90
76120;DHT22;64852;48.092;-1.640;2023-07-28T19:40:37;22.60;99.90
76120;DHT22;64852;48.092;-1.640;2023-07-28T19:43:02;22.50;99.90
76120;DHT22;64852;48.092;-1.640;2023-07-28T19:45:29;22.40;99.90
76120;DHT22;64852;48.092;-1.640;2023-07-28T19:47:55;22.40;99.90
76120;DHT22;64852;48.092;-1.640;2023-07-28T19:50:20;22.40;99.90
76120;DHT22;64852;48.092;-1.640;2023-07-28T19:52:46;22.40;99.90
76120;DHT22;64852;48.092;-1.640;2023-07-28T19:55:11;22.30;99.90
76120;DHT22;64852;48.092;-1.640;2023-07-28T19:57:37;22.30;99.90
76120;DHT22;64852;48.092;-1.640;2023-07-28T20:00:02;22.20;99.90
76120;DHT22;64852;48.092;-1.640;2023-07-28T20:02:29;22.10;99.90
76120;DHT22;64852;48.092;-1.640;2023-07-28T20:04:54;22.10;99.90
76120;DHT22;64852;48.092;-1.640;2023-07-28T20:07:20;22.10;99.90
76120;DHT22;64852;48.092;-1.640;2023-07-28T20:09:48;22.10;99.90
76120;DHT22;64852;48.092;-1.640;2023-07-28T20:12:14;21.90;99.90
76120;DHT22;64852;48.092;-1.640;2023-07-28T20:14:39;22.00;99.90
76120;DHT22;64852;48.092;-1.640;2023-07-28T20:17:05;22.00;99.90
76120;DHT22;64852;48.092;-1.640;2023-07-28T20:19:31;22.00;99.90
76120;DHT22;64852;48.092;-1.640;2023-07-28T20:21:57;21.80;99.90
76120;DHT22;64852;48.092;-1.640;2023-07-28T20:24:22;21.70;99.90
76120;DHT22;64852;48.092;-1.640;2023-07-28T20:26:48;21.70;99.90
76120;DHT22;64852;48.092;-1.640;2023-07-28T20:29:13;21.70;99.90
76120;DHT22;64852;48.092;-1.640;2023-07-28T20:31:39;21.50;99.90
76120;DHT22;64852;48.092;-1.640;2023-07-28T20:34:04;21.50;99.90
76120;DHT22;64852;48.092;-1.640;2023-07-28T20:36:30;21.50;99.90
76120;DHT22;64852;48.092;-1.640;2023-07-28T20:38:55;21.50;99.90
76120;DHT22;64852;48.092;-1.640;2023-07-28T20:41:21;21.40;99.90
76120;DHT22;64852;48.092;-1.640;2023-07-28T20:43:46;21.40;99.90
76120;DHT22;64852;48.092;-1.640;2023-07-28T20:46:12;21.30;99.90
76120;DHT22;64852;48.092;-1.640;2023-07-28T20:48:37;21.00;99.90
76120;DHT22;64852;48.092;-1.640;2023-07-28T20:51:03;21.10;99.90
76120;DHT22;64852;48.092;-1.640;2023-07-28T20:53:29;21.10;99.90
76120;DHT22;64852;48.092;-1.640;2023-07-28T20:55:56;21.10;99.90
76120;DHT22;64852;48.092;-1.640;2023-07-28T20:58:22;21.10;99.90
76120;DHT22;64852;48.092;-1.640;2023-07-28T21:00:50;21.10;99.90
76120;DHT22;64852;48.092;-1.640;2023-07-28T21:03:15;21.10;99.90
76120;DHT22;64852;48.092;-1.640;2023-07-28T21:05:41;21.00;99.90
76120;DHT22;64852;48.092;-1.640;2023-07-28T21:08:07;21.00;99.90
76120;DHT22;64852;48.092;-1.640;2023-07-28T21:10:32;21.00;99.90
76120;DHT22;64852;48.092;-1.640;2023-07-28T21:13:01;20.90;99.90
76120;DHT22;64852;48.092;-1.640;2023-07-28T21:15:26;21.00;99.90
76120;DHT22;64852;48.092;-1.640;2023-07-28T21:17:52;20.90;99.90
76120;DHT22;64852;48.092;-1.640;2023-07-28T21:20:17;20.80;99.90
76120;DHT22;64852;48.092;-1.640;2023-07-28T21:22:43;20.80;99.90
76120;DHT22;64852;48.092;-1.640;2023-07-28T21:25:09;20.80;99.90
76120;DHT22;64852;48.092;-1.640;2023-07-28T21:27:37;20.90;99.90
76120;DHT22;64852;48.092;-1.640;2023-07-28T21:30:03;20.80;99.90
76120;DHT22;64852;48.092;-1.640;2023-07-28T21:32:29;20.70;99.90
76120;DHT22;64852;48.092;-1.640;2023-07-28T21:34:54;20.70;99.90
76120;DHT22;64852;48.092;-1.640;2023-07-28T21:37:20;20.60;99.90
76120;DHT22;64852;48.092;-1.640;2023-07-28T21:39:46;20.50;99.90
76120;DHT22;64852;48.092;-1.640;2023-07-28T21:42:11;20.50;99.90
76120;DHT22;64852;48.092;-1.640;2023-07-28T21:44:37;20.40;99.90
76120;DHT22;64852;48.092;-1.640;2023-07-28T21:47:02;20.30;99.90
76120;DHT22;64852;48.092;-1.640;2023-07-28T21:49:28;20.30;99.90
76120;DHT22;64852;48.092;-1.640;2023-07-28T21:51:53;20.20;99.90
76120;DHT22;64852;48.092;-1.640;2023-07-28T21:54:20;20.30;99.90
76120;DHT22;64852;48.092;-1.640;2023-07-28T21:56:46;20.40;99.90
76120;DHT22;64852;48.092;-1.640;2023-07-28T21:59:12;20.40;99.90
76120;DHT22;64852;48.092;-1.640;2023-07-28T22:01:37;20.40;99.90
76120;DHT22;64852;48.092;-1.640;2023-07-28T22:04:03;20.40;99.90
76120;DHT22;64852;48.092;-1.640;2023-07-28T22:06:28;20.40;99.90
76120;DHT22;64852;48.092;-1.640;2023-07-28T22:08:54;20.40;99.90
76120;DHT22;64852;48.092;-1.640;2023-07-28T22:11:20;20.30;99.90
76120;DHT22;64852;48.092;-1.640;2023-07-28T22:13:45;20.30;99.90
76120;DHT22;64852;48.092;-1.640;2023-07-28T22:16:11;20.20;99.90
76120;DHT22;64852;48.092;-1.640;2023-07-28T22:18:36;20.10;99.90
76120;DHT22;64852;48.092;-1.640;2023-07-28T22:21:02;20.10;99.90
76120;DHT22;64852;48.092;-1.640;2023-07-28T22:23:28;20.10;99.90
76120;DHT22;64852;48.092;-1.640;2023-07-28T22:25:53;20.00;99.90
76120;DHT22;64852;48.092;-1.640;2023-07-28T22:28:19;20.00;99.90
76120;DHT22;64852;48.092;-1.640;2023-07-28T22:30:44;20.00;99.90
76120;DHT22;64852;48.092;-1.640;2023-07-28T22:33:10;20.00;99.90
76120;DHT22;64852;48.092;-1.640;2023-07-28T22:35:35;20.00;99.90
76120;DHT22;64852;48.092;-1.640;2023-07-28T22:38:01;20.00;99.90
76120;DHT22;64852;48.092;-1.640;2023-07-28T22:40:27;20.00;99.90
76120;DHT22;64852;48.092;-1.640;2023-07-28T22:42:53;20.00;99.90
76120;DHT22;64852;48.092;-1.640;2023-07-28T22:45:18;19.80;99.90
76120;DHT22;64852;48.092;-1.640;2023-07-28T22:47:44;19.80;99.90
76120;DHT22;64852;48.092;-1.640;2023-07-28T22:50:10;17.70;99.90
76120;DHT22;64852;48.092;-1.640;2023-07-28T22:52:36;19.80;99.90
76120;DHT22;64852;48.092;-1.640;2023-07-28T22:55:02;19.80;99.90
76120;DHT22;64852;48.092;-1.640;2023-07-28T22:57:27;19.70;99.90
76120;DHT22;64852;48.092;-1.640;2023-07-28T22:59:53;19.70;99.90
76120;DHT22;64852;48.092;-1.640;2023-07-28T23:02:19;19.70;99.90
76120;DHT22;64852;48.092;-1.640;2023-07-28T23:04:44;19.60;99.90
76120;DHT22;64852;48.092;-1.640;2023-07-28T23:07:10;19.70;99.90
76120;DHT22;64852;48.092;-1.640;2023-07-28T23:09:41;19.60;99.90
76120;DHT22;64852;48.092;-1.640;2023-07-28T23:12:07;19.60;99.90
76120;DHT22;64852;48.092;-1.640;2023-07-28T23:14:33;19.60;99.90
76120;DHT22;64852;48.092;-1.640;2023-07-28T23:16:58;19.50;99.90
76120;DHT22;64852;48.092;-1.640;2023-07-28T23:19:24;19.60;99.90
76120;DHT22;64852;48.092;-1.640;2023-07-28T23:21:50;19.60;99.90
76120;DHT22;64852;48.092;-1.640;2023-07-28T23:24:15;19.60;99.90
76120;DHT22;64852;48.092;-1.640;2023-07-28T23:26:40;19.60;99.90
76120;DHT22;64852;48.092;-1.640;2023-07-28T23:29:06;19.60;99.90
76120;DHT22;64852;48.092;-1.640;2023-07-28T23:31:31;19.60;99.90
76120;DHT22;64852;48.092;-1.640;2023-07-28T23:33:57;19.60;99.90
76120;DHT22;64852;48.092;-1.640;2023-07-28T23:36:22;19.60;99.90
76120;DHT22;64852;48.092;-1.640;2023-07-28T23:38:49;19.70;99.90
76120;DHT22;64852;48.092;-1.640;2023-07-28T23:41:15;19.60;99.90
76120;DHT22;64852;48.092;-1.640;2023-07-28T23:43:43;19.60;99.90
76120;DHT22;64852;48.092;-1.640;2023-07-28T23:46:09;19.60;99.90
76120;DHT22;64852;48.092;-1.640;2023-07-28T23:48:35;19.60;99.90
76120;DHT22;64852;48.092;-1.640;2023-07-28T23:51:01;19.60;99.90
76120;DHT22;64852;48.092;-1.640;2023-07-28T23:53:27;19.60;99.90
76120;DHT22;64852;48.092;-1.640;2023-07-28T23:55:53;19.60;99.90
76120;DHT22;64852;48.092;-1.640;2023-07-28T23:58:19;19.60;99.90
